Time;durP1;ratioP1;P1;durP2;ratioP2;P2;SDS_P1;SDS_P2;PMS_P1;PMS_P2;Temp;Humidity;BMP_temperature;BMP_pressure;BME280_temperature;BME280_humidity;BME280_pressure;Samples;Min_cycle;Max_cycle;Signal;HPM_P1;HPM_P2
2021/06/21 00:01:19;;;;;;;7.80;3.78;;;17.60;99.90;;;;;;4984056;28;20019;-83
2021/06/21 00:03:45;;;;;;;5.50;3.92;;;17.40;99.90;;;;;;4984027;28;20039;-82
2021/06/21 00:06:11;;;;;;;6.97;3.92;;;17.40;99.90;;;;;;4985075;28;20084;-82
2021/06/21 00:08:36;;;;;;;6.22;3.72;;;17.30;99.90;;;;;;4983931;28;20376;-82
2021/06/21 00:11:02;;;;;;;4.38;3.45;;;17.30;99.90;;;;;;4983776;28;20098;-81
2021/06/21 00:13:28;;;;;;;4.97;3.85;;;17.40;99.90;;;;;;4967484;28;20050;-81
2021/06/21 00:15:54;;;;;;;4.35;3.05;;;17.40;99.90;;;;;;4983744;28;20095;-81
2021/06/21 00:18:20;;;;;;;5.60;2.97;;;17.40;99.90;;;;;;4983865;28;20034;-82
2021/06/21 00:20:49;;;;;;;5.70;3.70;;;17.30;99.90;;;;;;4985045;28;20058;-81
2021/06/21 00:23:15;;;;;;;4.35;2.83;;;17.20;99.90;;;;;;4984891;28;20042;-81
2021/06/21 00:25:41;;;;;;;4.63;3.95;;;17.20;99.90;;;;;;4983552;28;20035;-81
2021/06/21 00:28:07;;;;;;;6.72;4.78;;;17.10;99.90;;;;;;4985117;28;20055;-81
2021/06/21 00:30:33;;;;;;;6.38;5.05;;;17.20;99.90;;;;;;4983781;28;20467;-81
2021/06/21 00:32:59;;;;;;;9.73;4.72;;;17.20;99.90;;;;;;4983481;28;20054;-80
2021/06/21 00:35:24;;;;;;;5.32;3.78;;;17.10;99.90;;;;;;4999646;28;20042;-81
2021/06/21 00:37:50;;;;;;;7.50;4.28;;;17.10;99.90;;;;;;4984588;28;20035;-81
2021/06/21 00:40:17;;;;;;;4.47;2.97;;;17.10;99.90;;;;;;4984859;28;20031;-80
2021/06/21 00:42:46;;;;;;;10.23;4.95;;;17.20;99.90;;;;;;4984712;28;20072;-81
2021/06/21 00:45:13;;;;;;;5.13;4.00;;;17.10;99.90;;;;;;4983387;28;20038;-81
2021/06/21 00:47:39;;;;;;;6.88;3.67;;;17.00;99.90;;;;;;4983220;28;20286;-81
2021/06/21 00:50:05;;;;;;;8.75;5.68;;;16.90;99.90;;;;;;4967433;28;20065;-80
2021/06/21 00:52:31;;;;;;;8.70;5.07;;;16.70;99.90;;;;;;4967282;28;20120;-80
2021/06/21 00:55:00;;;;;;;9.43;7.20;;;16.60;99.90;;;;;;4984318;28;20440;-81
2021/06/21 00:57:29;;;;;;;9.65;7.13;;;16.50;99.90;;;;;;4967289;28;20027;-81
2021/06/21 00:59:58;;;;;;;12.65;8.93;;;16.50;99.90;;;;;;4983458;28;20065;-81
2021/06/21 01:02:25;;;;;;;9.63;6.40;;;16.30;99.90;;;;;;4982953;28;20043;-81
2021/06/21 01:04:51;;;;;;;14.57;7.72;;;16.30;99.90;;;;;;4984237;28;20094;-80
2021/06/21 01:07:16;;;;;;;8.38;5.75;;;16.20;99.90;;;;;;4984847;28;20041;-80
2021/06/21 01:09:42;;;;;;;8.93;6.57;;;16.40;99.90;;;;;;4984878;28;20037;-80
2021/06/21 01:12:34;;;;;;;9.10;6.40;;;16.30;99.90;;;;;;4984334;28;20104;-81
2021/06/21 01:15:06;;;;;;;8.20;6.50;;;16.30;99.90;;;;;;4984189;28;20039;-82
2021/06/21 01:17:57;;;;;;;9.65;6.60;;;16.20;99.90;;;;;;4983142;28;20069;-81
2021/06/21 01:20:41;;;;;;;10.35;6.75;;;16.10;99.90;;;;;;4984316;28;20045;-81
2021/06/21 01:23:25;;;;;;;8.65;6.30;;;16.20;99.90;;;;;;4982956;28;20034;-81
2021/06/21 01:25:59;;;;;;;7.65;4.65;;;16.20;99.90;;;;;;4966833;28;20061;-81
2021/06/21 01:28:42;;;;;;;6.50;4.38;;;16.00;99.90;;;;;;4983010;28;20041;-80
2021/06/21 01:31:22;;;;;;;9.50;4.70;;;16.10;99.90;;;;;;4966747;28;20229;-81
2021/06/21 01:33:50;;;;;;;7.40;4.75;;;16.00;99.90;;;;;;4982681;28;20049;-81
2021/06/21 01:36:19;;;;;;;6.30;5.55;;;15.90;99.90;;;;;;4982960;28;20039;-82
2021/06/21 01:38:58;;;;;;;6.63;5.97;;;15.90;99.90;;;;;;4966417;28;20045;-81
2021/06/21 01:41:32;;;;;;;7.10;6.40;;;15.90;99.90;;;;;;4984019;28;20038;-81
2021/06/21 01:43:59;;;;;;;6.28;3.97;;;15.80;99.90;;;;;;4982725;28;20027;-81
2021/06/21 01:46:30;;;;;;;8.73;4.57;;;15.80;99.90;;;;;;4982309;28;20039;-82
2021/06/21 01:49:08;;;;;;;6.05;4.93;;;15.80;99.90;;;;;;4998694;28;20046;-82
2021/06/21 01:51:36;;;;;;;8.10;4.13;;;15.70;99.90;;;;;;4982421;28;20031;-82
2021/06/21 01:54:04;;;;;;;4.78;2.80;;;15.80;99.90;;;;;;4982291;28;20129;-81
2021/06/21 01:56:31;;;;;;;5.57;4.13;;;15.70;99.90;;;;;;4982344;28;20031;-82
2021/06/21 01:59:01;;;;;;;5.10;3.90;;;15.70;99.90;;;;;;4982495;28;20045;-81
2021/06/21 02:01:27;;;;;;;4.23;3.33;;;15.50;99.90;;;;;;4998584;28;20037;-82
2021/06/21 02:03:54;;;;;;;6.93;3.85;;;15.50;99.90;;;;;;4983512;28;20281;-80
2021/06/21 02:06:25;;;;;;;5.85;4.18;;;15.50;99.90;;;;;;4982346;28;20034;-81
2021/06/21 02:08:51;;;;;;;4.25;3.83;;;15.40;99.90;;;;;;4983747;28;20042;-81
2021/06/21 02:11:18;;;;;;;4.15;3.58;;;15.40;99.90;;;;;;4982300;28;20394;-81
2021/06/21 02:13:48;;;;;;;5.25;3.33;;;15.40;99.90;;;;;;4983384;28;20110;-81
2021/06/21 02:16:14;;;;;;;6.40;3.67;;;15.40;99.90;;;;;;4983372;28;20039;-81
2021/06/21 02:18:41;;;;;;;6.13;2.10;;;15.20;99.90;;;;;;4998576;28;20042;-81
2021/06/21 02:21:08;;;;;;;5.82;3.30;;;15.30;99.90;;;;;;4965995;28;20184;-81
2021/06/21 02:23:36;;;;;;;5.63;3.40;;;15.20;99.90;;;;;;4984344;28;20542;-82
2021/06/21 02:26:02;;;;;;;4.90;3.40;;;15.00;99.90;;;;;;5001828;28;20065;-80
2021/06/21 02:28:28;;;;;;;5.25;2.28;;;15.00;99.90;;;;;;5001517;28;20035;-81
2021/06/21 02:30:58;;;;;;;3.67;1.90;;;14.90;99.90;;;;;;4985566;28;20471;-81
2021/06/21 02:33:24;;;;;;;3.15;2.10;;;14.90;99.90;;;;;;4986501;28;20043;-81
2021/06/21 02:35:50;;;;;;;2.92;1.27;;;14.90;99.90;;;;;;4985625;28;20108;-82
2021/06/21 02:38:16;;;;;;;2.85;1.67;;;15.00;99.90;;;;;;4986586;28;20043;-81
2021/06/21 02:40:42;;;;;;;2.92;1.67;;;14.90;99.90;;;;;;4986570;28;20057;-81
2021/06/21 02:43:08;;;;;;;5.32;1.70;;;14.90;99.90;;;;;;4985359;28;20043;-81
2021/06/21 02:45:57;;;;;;;4.38;3.35;;;14.80;99.90;;;;;;4985410;28;20071;-80
2021/06/21 02:48:22;;;;;;;4.10;3.13;;;14.70;99.90;;;;;;4948604;29;20158;-80
2021/06/21 02:50:49;;;;;;;6.03;3.60;;;14.70;99.90;;;;;;4948778;29;20040;-80
2021/06/21 02:53:24;;;;;;;5.18;2.50;;;14.60;99.90;;;;;;4971021;28;20070;-81
2021/06/21 02:56:09;;;;;;;5.80;3.22;;;14.70;99.90;;;;;;4970176;28;20042;-81
2021/06/21 02:58:39;;;;;;;5.18;2.95;;;14.70;99.90;;;;;;4948728;29;20438;-80
2021/06/21 03:01:06;;;;;;;4.85;2.95;;;14.60;99.90;;;;;;4964785;28;20042;-81
2021/06/21 03:03:37;;;;;;;3.20;1.67;;;14.60;99.90;;;;;;4964759;29;20039;-81
2021/06/21 03:06:04;;;;;;;2.80;1.95;;;14.60;99.90;;;;;;4948717;29;20039;-80
2021/06/21 03:08:39;;;;;;;3.63;2.00;;;14.60;99.90;;;;;;4948395;29;20074;-82
2021/06/21 03:11:07;;;;;;;2.90;2.00;;;14.60;99.90;;;;;;4932636;29;20042;-81
2021/06/21 03:13:34;;;;;;;2.80;1.77;;;14.50;99.90;;;;;;4948289;29;20050;-80
2021/06/21 03:16:01;;;;;;;3.38;1.98;;;14.50;99.90;;;;;;4964510;29;20063;-79
2021/06/21 03:18:27;;;;;;;3.15;2.35;;;14.40;99.90;;;;;;4964633;29;20473;-81
2021/06/21 03:20:58;;;;;;;3.53;2.80;;;14.40;99.90;;;;;;4964610;29;20527;-81
2021/06/21 03:23:26;;;;;;;4.80;2.30;;;14.40;99.90;;;;;;4948316;28;20036;-80
2021/06/21 03:25:53;;;;;;;4.72;2.17;;;14.30;99.90;;;;;;4972608;28;20106;-80
2021/06/21 03:28:19;;;;;;;3.65;2.05;;;14.30;99.90;;;;;;4984743;28;20042;-81
2021/06/21 03:30:58;;;;;;;3.35;2.63;;;14.20;99.90;;;;;;4986265;28;20061;-81
2021/06/21 03:33:25;;;;;;;8.18;2.75;;;14.20;99.90;;;;;;4985682;28;20039;-81
2021/06/21 03:35:51;;;;;;;5.15;2.88;;;14.10;99.90;;;;;;4985363;28;20027;-80
2021/06/21 03:38:22;;;;;;;4.38;1.75;;;14.10;99.90;;;;;;4985771;28;20406;-81
2021/06/21 03:40:50;;;;;;;5.28;3.03;;;14.20;99.90;;;;;;4986365;28;20035;-81
2021/06/21 03:43:18;;;;;;;3.60;1.23;;;14.10;99.90;;;;;;4985552;28;20043;-82
2021/06/21 03:46:05;;;;;;;5.05;2.05;;;14.10;99.90;;;;;;4986066;28;20031;-79
2021/06/21 03:48:32;;;;;;;4.03;1.95;;;14.10;99.90;;;;;;4947637;29;20057;-80
2021/06/21 03:50:57;;;;;;;2.88;1.58;;;14.10;99.90;;;;;;4947853;28;20039;-82
2021/06/21 03:53:29;;;;;;;2.58;1.08;;;14.10;99.90;;;;;;4963451;28;20087;-81
2021/06/21 03:55:55;;;;;;;2.78;1.33;;;14.10;99.90;;;;;;4963845;29;20065;-84
2021/06/21 03:58:21;;;;;;;3.20;1.70;;;14.00;99.90;;;;;;4963756;29;20054;-80
2021/06/21 04:00:47;;;;;;;2.08;1.27;;;14.00;99.90;;;;;;4947867;28;20046;-81
2021/06/21 04:03:13;;;;;;;3.25;1.80;;;14.00;99.90;;;;;;4947610;28;20074;-80
2021/06/21 04:05:48;;;;;;;4.35;2.50;;;14.00;99.90;;;;;;4963911;29;20047;-83
2021/06/21 04:08:16;;;;;;;3.58;1.67;;;14.00;99.90;;;;;;4931655;28;20035;-82
2021/06/21 04:10:43;;;;;;;3.40;1.48;;;13.90;99.90;;;;;;4917982;28;20159;-81
2021/06/21 04:13:09;;;;;;;3.13;2.15;;;13.90;99.90;;;;;;4944129;29;20048;-81
2021/06/21 04:15:35;;;;;;;4.03;2.30;;;13.90;99.90;;;;;;4955085;29;20403;-81
2021/06/21 04:18:04;;;;;;;4.07;1.55;;;13.90;99.90;;;;;;4947508;29;20089;-82
2021/06/21 04:20:30;;;;;;;2.20;0.88;;;13.90;99.90;;;;;;4963668;29;20040;-80
2021/06/21 04:22:57;;;;;;;3.22;1.65;;;13.90;99.90;;;;;;4947348;29;20035;-80
2021/06/21 04:25:23;;;;;;;1.65;0.80;;;13.90;99.90;;;;;;4972081;28;20049;-81
2021/06/21 04:27:49;;;;;;;2.40;1.20;;;13.90;99.90;;;;;;4983013;28;20045;-80
2021/06/21 04:30:18;;;;;;;3.03;1.40;;;14.00;99.90;;;;;;4985031;28;20023;-81
2021/06/21 04:32:43;;;;;;;2.55;0.80;;;14.00;99.90;;;;;;4983621;28;20096;-80
2021/06/21 04:35:13;;;;;;;3.45;1.20;;;13.90;99.90;;;;;;4984775;28;20027;-80
2021/06/21 04:37:38;;;;;;;3.15;1.30;;;13.80;99.90;;;;;;4984944;28;20034;-82
2021/06/21 04:40:10;;;;;;;3.95;1.60;;;13.80;99.90;;;;;;4984819;28;20027;-80
2021/06/21 04:42:36;;;;;;;3.15;1.48;;;13.80;99.90;;;;;;4979825;28;20034;-82
2021/06/21 04:45:02;;;;;;;3.55;1.33;;;13.70;99.90;;;;;;4982321;28;20038;-82
2021/06/21 04:47:27;;;;;;;2.42;1.17;;;13.80;99.90;;;;;;4983821;28;20129;-81
2021/06/21 04:49:56;;;;;;;2.53;1.10;;;13.80;99.90;;;;;;4983829;28;20050;-80
2021/06/21 04:52:28;;;;;;;3.45;1.13;;;13.80;99.90;;;;;;4983877;28;20109;-81
2021/06/21 04:55:01;;;;;;;2.05;0.95;;;13.80;99.90;;;;;;4969465;28;20046;-80
2021/06/21 04:57:30;;;;;;;1.67;0.90;;;13.80;99.90;;;;;;4981449;28;20039;-80
2021/06/21 04:59:56;;;;;;;3.13;1.20;;;13.80;99.90;;;;;;4963033;29;20042;-80
2021/06/21 05:02:23;;;;;;;4.38;0.98;;;13.70;99.90;;;;;;4963111;29;20038;-80
2021/06/21 05:04:49;;;;;;;1.65;0.73;;;13.80;99.90;;;;;;4962872;29;20066;-81
2021/06/21 05:07:16;;;;;;;2.05;0.68;;;13.80;99.90;;;;;;4963414;29;20027;-80
2021/06/21 05:09:42;;;;;;;2.22;1.05;;;13.80;99.90;;;;;;4963134;29;20027;-80
2021/06/21 05:12:09;;;;;;;1.60;0.70;;;13.70;99.90;;;;;;4962800;29;20031;-80
2021/06/21 05:14:35;;;;;;;1.70;0.52;;;13.90;99.90;;;;;;4964106;28;20062;-81
2021/06/21 05:17:01;;;;;;;1.20;0.52;;;13.80;99.90;;;;;;4962956;29;20471;-82
2021/06/21 05:19:26;;;;;;;1.90;0.70;;;13.90;99.90;;;;;;4964264;28;20032;-81
2021/06/21 05:21:52;;;;;;;1.67;0.70;;;13.80;99.90;;;;;;4963107;28;20050;-81
2021/06/21 05:24:18;;;;;;;2.10;0.73;;;13.80;99.90;;;;;;4964129;29;20069;-80
2021/06/21 05:26:43;;;;;;;1.50;0.65;;;13.70;99.90;;;;;;4964320;28;20081;-80
2021/06/21 05:29:09;;;;;;;3.45;0.85;;;13.70;99.90;;;;;;4964062;28;20027;-81
2021/06/21 05:31:36;;;;;;;2.65;0.88;;;13.70;99.90;;;;;;4962998;28;20035;-81
2021/06/21 05:34:02;;;;;;;2.95;0.90;;;13.70;99.90;;;;;;4964007;29;20095;-80
2021/06/21 05:36:27;;;;;;;3.17;0.65;;;13.70;99.90;;;;;;4962839;29;20396;-81
2021/06/21 05:38:53;;;;;;;1.90;0.60;;;13.80;99.90;;;;;;4962780;29;20032;-79
2021/06/21 05:41:19;;;;;;;1.30;0.60;;;13.90;99.90;;;;;;4962715;28;20479;-80
2021/06/21 05:43:44;;;;;;;1.20;0.43;;;13.80;99.90;;;;;;4979368;28;20505;-80
2021/06/21 05:46:10;;;;;;;1.05;0.40;;;13.80;99.90;;;;;;4982805;28;20300;-80
2021/06/21 05:48:35;;;;;;;1.27;0.50;;;13.80;99.90;;;;;;4981904;28;20050;-81
2021/06/21 05:51:01;;;;;;;1.40;0.50;;;13.70;99.90;;;;;;4982118;28;20529;-80
2021/06/21 05:53:29;;;;;;;1.20;0.50;;;13.70;99.90;;;;;;4981750;28;20204;-79
2021/06/21 05:55:55;;;;;;;2.72;0.43;;;13.70;99.90;;;;;;4981898;28;20023;-80
2021/06/21 05:58:21;;;;;;;0.77;0.30;;;13.80;99.90;;;;;;4982781;28;20474;-79
2021/06/21 06:00:46;;;;;;;2.45;0.30;;;13.80;99.90;;;;;;4982851;28;20094;-81
2021/06/21 06:03:12;;;;;;;2.28;0.50;;;13.80;99.90;;;;;;4997947;28;20034;-80
2021/06/21 06:05:37;;;;;;;1.50;0.40;;;13.70;99.90;;;;;;4981732;28;20035;-79
2021/06/21 06:08:03;;;;;;;1.58;0.40;;;13.80;99.90;;;;;;4981710;28;20071;-80
2021/06/21 06:10:29;;;;;;;1.05;0.40;;;13.80;99.90;;;;;;4981606;28;20047;-80
2021/06/21 06:12:54;;;;;;;1.20;0.40;;;13.80;99.90;;;;;;4982926;28;20107;-80
2021/06/21 06:15:20;;;;;;;1.08;0.43;;;13.80;99.90;;;;;;4982691;28;20027;-81
2021/06/21 06:17:46;;;;;;;0.80;0.40;;;13.70;99.90;;;;;;4983037;28;20042;-81
2021/06/21 06:20:12;;;;;;;0.90;0.40;;;13.80;99.90;;;;;;4974222;28;20034;-81
2021/06/21 06:22:38;;;;;;;1.42;0.60;;;13.80;99.90;;;;;;4998019;28;20083;-80
2021/06/21 06:25:05;;;;;;;0.60;0.30;;;13.70;99.90;;;;;;4982122;28;20103;-81
2021/06/21 06:27:31;;;;;;;0.93;0.30;;;13.80;99.90;;;;;;4997668;28;20038;-79
2021/06/21 06:29:56;;;;;;;0.73;0.35;;;13.80;99.90;;;;;;4983033;28;20039;-80
2021/06/21 06:32:22;;;;;;;0.80;0.30;;;13.70;99.90;;;;;;4982603;28;20027;-80
2021/06/21 06:34:48;;;;;;;0.75;0.30;;;13.80;99.90;;;;;;4981487;28;20060;-81
2021/06/21 06:37:13;;;;;;;0.88;0.22;;;13.80;99.90;;;;;;4981419;28;20035;-79
2021/06/21 06:39:39;;;;;;;1.02;0.50;;;13.80;99.90;;;;;;4982759;28;20123;-80
2021/06/21 06:42:05;;;;;;;1.00;0.32;;;13.80;99.90;;;;;;4982645;28;20023;-79
2021/06/21 06:44:31;;;;;;;0.82;0.30;;;13.80;99.90;;;;;;4981384;28;20030;-81
2021/06/21 06:46:57;;;;;;;0.85;0.30;;;13.80;99.90;;;;;;4982131;28;20030;-79
2021/06/21 06:49:23;;;;;;;0.60;0.30;;;13.80;99.90;;;;;;4982499;28;20431;-80
2021/06/21 06:51:52;;;;;;;0.73;0.28;;;13.80;99.90;;;;;;4982536;28;20031;-80
2021/06/21 06:57:00;;;;;;;0.73;0.30;;;13.80;99.90;;;;;;4980933;28;20529;-80
2021/06/21 06:59:37;;;;;;;0.68;0.30;;;13.80;99.90;;;;;;4992588;28;20191;-80
2021/06/21 07:02:08;;;;;;;0.80;0.30;;;13.80;99.90;;;;;;4980738;28;20061;-81
2021/06/21 07:04:35;;;;;;;0.73;0.30;;;13.90;99.90;;;;;;4980839;28;20037;-80
2021/06/21 07:07:02;;;;;;;0.70;0.30;;;13.80;99.90;;;;;;4964765;28;20130;-83
2021/06/21 07:09:29;;;;;;;1.35;0.40;;;13.90;99.90;;;;;;4981770;28;20027;-80
2021/06/21 07:11:55;;;;;;;0.90;0.32;;;13.90;99.90;;;;;;4984099;28;20031;-81
2021/06/21 07:14:21;;;;;;;1.00;0.30;;;13.80;99.90;;;;;;4984917;28;20039;-80
2021/06/21 07:16:48;;;;;;;0.77;0.20;;;13.90;99.90;;;;;;4967592;28;20058;-79
2021/06/21 07:19:20;;;;;;;1.25;0.25;;;13.90;99.90;;;;;;4984122;28;20041;-82
2021/06/21 07:21:47;;;;;;;2.05;0.30;;;13.80;99.90;;;;;;4983944;28;20031;-81
2021/06/21 07:24:13;;;;;;;0.90;0.40;;;13.80;99.90;;;;;;4983997;28;20034;-80
2021/06/21 07:26:40;;;;;;;0.70;0.30;;;13.90;99.90;;;;;;4985240;28;20084;-81
2021/06/21 07:29:06;;;;;;;0.50;0.20;;;13.90;99.90;;;;;;4983807;28;20031;-81
2021/06/21 07:31:33;;;;;;;0.50;0.20;;;13.90;99.90;;;;;;4985137;28;20034;-81
2021/06/21 07:34:00;;;;;;;0.77;0.30;;;14.00;99.90;;;;;;4967366;28;20051;-81
2021/06/21 07:36:26;;;;;;;0.70;0.30;;;14.00;99.90;;;;;;4983840;28;20035;-80
2021/06/21 07:38:52;;;;;;;0.98;0.30;;;14.10;99.90;;;;;;4985097;28;20054;-81
2021/06/21 07:41:18;;;;;;;0.98;0.30;;;13.90;99.90;;;;;;4956016;28;20059;-81
2021/06/21 07:43:44;;;;;;;0.77;0.30;;;14.00;99.90;;;;;;4973207;28;20042;-84
2021/06/21 07:46:10;;;;;;;1.73;0.30;;;14.00;99.90;;;;;;5021057;28;20120;-83
2021/06/21 07:48:40;;;;;;;0.82;0.30;;;14.00;99.90;;;;;;4983995;28;20592;-82
2021/06/21 07:51:07;;;;;;;1.25;0.30;;;14.00;99.90;;;;;;4995345;28;20035;-81
2021/06/21 07:53:33;;;;;;;0.70;0.20;;;13.90;99.90;;;;;;4971726;28;20076;-82
2021/06/21 07:55:59;;;;;;;1.15;0.40;;;14.00;99.90;;;;;;4947691;28;20055;-81
2021/06/21 07:58:25;;;;;;;0.70;0.30;;;14.00;99.90;;;;;;4965150;29;20066;-81
2021/06/21 08:00:50;;;;;;;0.73;0.20;;;14.10;99.90;;;;;;4964142;29;20035;-83
2021/06/21 08:03:16;;;;;;;0.80;0.40;;;14.00;99.90;;;;;;4947875;29;20050;-82
2021/06/21 08:05:49;;;;;;;0.80;0.30;;;14.00;99.90;;;;;;4969205;28;20015;-82
2021/06/21 08:08:14;;;;;;;0.90;0.30;;;14.00;99.90;;;;;;4967126;28;20035;-82
2021/06/21 08:10:40;;;;;;;0.88;0.30;;;14.00;99.90;;;;;;4980672;28;20027;-82
2021/06/21 08:13:06;;;;;;;0.50;0.25;;;14.00;99.90;;;;;;4974114;28;20053;-82
2021/06/21 08:15:31;;;;;;;0.50;0.20;;;14.00;99.90;;;;;;4966933;28;20034;-82
2021/06/21 08:17:57;;;;;;;0.50;0.20;;;14.10;99.90;;;;;;4973012;28;20276;-81
2021/06/21 08:20:23;;;;;;;0.50;0.20;;;14.10;99.90;;;;;;4966893;28;20053;-81
2021/06/21 08:22:48;;;;;;;1.13;0.30;;;14.10;99.90;;;;;;5064412;28;20031;-82
2021/06/21 08:25:14;;;;;;;0.80;0.40;;;14.00;99.90;;;;;;4962744;28;20043;-82
2021/06/21 08:27:40;;;;;;;0.65;0.38;;;14.00;99.90;;;;;;5042533;28;20051;-82
2021/06/21 08:30:08;;;;;;;1.02;0.30;;;14.00;99.90;;;;;;4963632;28;20035;-81
2021/06/21 08:32:34;;;;;;;0.80;0.30;;;14.10;99.90;;;;;;5030734;28;20053;-81
2021/06/21 08:35:00;;;;;;;1.83;0.40;;;14.10;99.90;;;;;;5044424;28;20102;-82
2021/06/21 08:37:25;;;;;;;0.60;0.30;;;14.00;99.90;;;;;;4968580;28;20118;-81
2021/06/21 08:39:52;;;;;;;0.70;0.30;;;14.10;99.90;;;;;;4981637;28;20039;-82
2021/06/21 08:42:21;;;;;;;0.70;0.30;;;14.00;99.90;;;;;;4976639;28;20062;-82
2021/06/21 08:44:47;;;;;;;0.70;0.30;;;14.00;99.90;;;;;;4962904;28;20028;-81
2021/06/21 08:47:18;;;;;;;1.27;0.30;;;14.00;99.90;;;;;;4977735;28;20036;-82
2021/06/21 08:49:46;;;;;;;0.80;0.30;;;13.90;99.90;;;;;;4978735;28;20043;-82
2021/06/21 08:52:14;;;;;;;0.50;0.28;;;14.00;99.90;;;;;;4972278;28;20042;-81
2021/06/21 08:54:40;;;;;;;0.55;0.30;;;13.90;99.90;;;;;;4960099;28;20078;-80
2021/06/21 08:57:06;;;;;;;0.57;0.30;;;14.00;99.90;;;;;;4968951;28;20031;-81
2021/06/21 08:59:32;;;;;;;1.05;0.30;;;14.00;99.90;;;;;;4980980;28;20030;-81
2021/06/21 09:01:58;;;;;;;1.00;0.30;;;14.00;99.90;;;;;;4971597;28;20402;-82
2021/06/21 09:04:24;;;;;;;0.80;0.30;;;14.00;99.90;;;;;;4965090;28;20059;-82
2021/06/21 09:06:50;;;;;;;0.63;0.20;;;14.00;99.90;;;;;;4983774;28;20038;-83
2021/06/21 09:09:16;;;;;;;0.82;0.30;;;14.00;99.90;;;;;;4977629;28;20129;-84
2021/06/21 09:11:45;;;;;;;0.55;0.28;;;13.90;99.90;;;;;;4965083;28;20023;-80
2021/06/21 09:14:31;;;;;;;1.13;0.40;;;13.90;99.90;;;;;;4976306;28;20039;-82
2021/06/21 09:17:07;;;;;;;0.90;0.30;;;13.90;99.90;;;;;;4956097;28;20039;-82
2021/06/21 09:19:49;;;;;;;0.98;0.30;;;13.90;99.90;;;;;;4964273;28;20422;-83
2021/06/21 09:22:30;;;;;;;0.60;0.30;;;14.00;99.90;;;;;;4975162;28;20054;-81
2021/06/21 09:24:57;;;;;;;0.82;0.30;;;13.90;99.90;;;;;;4965208;28;20032;-80
2021/06/21 09:27:23;;;;;;;0.80;0.30;;;13.90;99.90;;;;;;5012385;28;20039;-82
2021/06/21 09:29:49;;;;;;;0.90;0.30;;;13.90;99.90;;;;;;5025895;28;20109;-82
2021/06/21 09:32:16;;;;;;;0.85;0.40;;;14.00;99.90;;;;;;4976130;28;20023;-82
2021/06/21 09:34:43;;;;;;;0.82;0.38;;;14.00;99.90;;;;;;5042017;28;20031;-83
2021/06/21 09:37:13;;;;;;;1.25;0.30;;;14.00;99.90;;;;;;4963810;28;20043;-84
2021/06/21 09:39:44;;;;;;;1.00;0.40;;;14.10;99.90;;;;;;5039457;28;20044;-83
2021/06/21 09:42:20;;;;;;;0.90;0.40;;;14.10;99.90;;;;;;4978841;28;20031;-81
2021/06/21 09:44:54;;;;;;;1.00;0.50;;;14.10;99.90;;;;;;4973330;28;20501;-83
2021/06/21 09:47:35;;;;;;;1.75;0.50;;;14.20;99.90;;;;;;4962063;28;20044;-83
2021/06/21 09:50:22;;;;;;;1.15;0.40;;;14.10;99.90;;;;;;4977445;28;20051;-84
2021/06/21 09:52:57;;;;;;;0.95;0.45;;;14.20;99.90;;;;;;4961631;28;20041;-82
2021/06/21 09:55:37;;;;;;;1.20;0.50;;;14.30;99.90;;;;;;4952912;28;20058;-82
2021/06/21 09:58:15;;;;;;;2.67;0.40;;;14.20;99.90;;;;;;4966983;28;20054;-81
2021/06/21 10:00:52;;;;;;;0.70;0.30;;;14.30;99.90;;;;;;4980220;28;20129;-83
2021/06/21 10:03:21;;;;;;;0.70;0.30;;;14.30;99.90;;;;;;4952455;28;20063;-83
2021/06/21 10:06:05;;;;;;;0.73;0.40;;;14.30;99.90;;;;;;4981463;28;20031;-84
2021/06/21 10:08:50;;;;;;;1.00;0.40;;;14.20;99.90;;;;;;4983803;28;20058;-83
2021/06/21 10:11:34;;;;;;;0.88;0.30;;;14.10;99.90;;;;;;4985529;28;20034;-85
2021/06/21 10:14:02;;;;;;;1.40;0.50;;;14.20;99.90;;;;;;5001055;28;20060;-83
2021/06/21 10:16:29;;;;;;;0.85;0.40;;;14.00;99.90;;;;;;4984643;28;20034;-83
2021/06/21 10:18:55;;;;;;;1.10;0.40;;;14.00;99.90;;;;;;5001136;28;20030;-85
2021/06/21 10:21:22;;;;;;;0.93;0.40;;;14.00;99.90;;;;;;4984827;28;20038;-85
2021/06/21 10:23:48;;;;;;;1.20;0.40;;;14.10;99.90;;;;;;4984966;28;20030;-86
2021/06/21 10:26:14;;;;;;;0.98;0.40;;;14.00;99.90;;;;;;4984533;28;20045;-84
2021/06/21 10:28:40;;;;;;;1.73;0.40;;;14.00;99.90;;;;;;4984490;28;20026;-85
2021/06/21 10:31:06;;;;;;;0.80;0.35;;;14.00;99.90;;;;;;4985129;28;20037;-85
2021/06/21 10:33:33;;;;;;;0.70;0.30;;;13.90;99.90;;;;;;4984661;28;20060;-86
2021/06/21 10:36:00;;;;;;;1.95;0.30;;;14.00;99.90;;;;;;5000633;28;20041;-85
2021/06/21 10:38:26;;;;;;;0.90;0.35;;;14.00;99.90;;;;;;4950054;28;20039;-86
2021/06/21 10:40:59;;;;;;;0.95;0.40;;;14.00;99.90;;;;;;5029662;28;20042;-85
2021/06/21 10:43:40;;;;;;;0.75;0.30;;;14.00;99.90;;;;;;5035887;28;20039;-86
2021/06/21 10:46:22;;;;;;;1.60;0.30;;;14.00;99.90;;;;;;4966620;28;20075;-85
2021/06/21 10:48:57;;;;;;;0.65;0.30;;;14.00;99.90;;;;;;4984705;28;20066;-86
2021/06/21 10:51:32;;;;;;;0.80;0.30;;;14.00;99.90;;;;;;4968883;28;20039;-85
2021/06/21 10:53:58;;;;;;;0.73;0.30;;;14.10;99.90;;;;;;4984736;28;20047;-83
2021/06/21 10:56:44;;;;;;;1.00;0.30;;;14.20;99.90;;;;;;5069301;28;20447;-84
2021/06/21 10:59:17;;;;;;;0.70;0.30;;;14.40;99.90;;;;;;4986095;28;20057;-83
2021/06/21 11:01:48;;;;;;;1.40;0.52;;;14.50;99.90;;;;;;5053093;28;20057;-85
2021/06/21 11:04:32;;;;;;;0.98;0.40;;;14.70;99.90;;;;;;4974959;28;20098;-84
2021/06/21 11:07:08;;;;;;;1.25;0.40;;;14.80;99.90;;;;;;4968263;28;20053;-83
2021/06/21 11:09:44;;;;;;;1.00;0.40;;;14.80;99.90;;;;;;5000745;28;20039;-84
2021/06/21 11:12:36;;;;;;;0.65;0.30;;;15.00;99.90;;;;;;4968049;28;20035;-83
2021/06/21 11:15:06;;;;;;;0.70;0.38;;;15.10;99.90;;;;;;4984488;28;20047;-84
2021/06/21 11:17:33;;;;;;;;;;;15.00;99.90;;;;;;4984578;28;20112;-82
2021/06/21 11:20:29;;;;;;;1.48;0.60;;;14.90;99.90;;;;;;4984441;28;19914;-83
2021/06/21 11:22:59;;;;;;;2.25;0.50;;;14.90;99.90;;;;;;4983956;28;20022;-83
2021/06/21 11:25:33;;;;;;;1.20;0.32;;;14.80;99.90;;;;;;4985507;28;20035;-84
2021/06/21 11:28:00;;;;;;;0.95;0.40;;;14.90;99.90;;;;;;4967883;28;20035;-83
2021/06/21 11:30:26;;;;;;;0.85;0.40;;;14.90;99.90;;;;;;4967795;28;20035;-83
2021/06/21 11:33:10;;;;;;;1.52;0.50;;;14.90;99.90;;;;;;4967938;28;20047;-85
2021/06/21 11:35:55;;;;;;;2.45;0.50;;;14.60;99.90;;;;;;5049825;28;20031;-83
2021/06/21 11:38:27;;;;;;;1.85;0.40;;;14.80;99.90;;;;;;4964644;29;20063;-83
2021/06/21 11:41:15;;;;;;;1.00;0.40;;;14.80;99.90;;;;;;4948302;28;20035;-85
2021/06/21 11:43:52;;;;;;;0.82;0.40;;;14.70;99.90;;;;;;4962318;28;20046;-84
2021/06/21 11:46:42;;;;;;;1.55;0.40;;;14.70;99.90;;;;;;4961933;28;20041;-84
2021/06/21 11:49:10;;;;;;;1.13;0.40;;;14.70;99.90;;;;;;5043955;28;20048;-81
2021/06/21 11:51:36;;;;;;;0.50;0.30;;;14.70;99.90;;;;;;5063611;28;20032;-84
2021/06/21 11:54:05;;;;;;;0.80;0.40;;;14.60;99.90;;;;;;5068144;28;20063;-85
2021/06/21 11:56:31;;;;;;;1.00;0.40;;;14.60;99.90;;;;;;5064680;28;20029;-84
2021/06/21 11:58:59;;;;;;;1.90;0.47;;;14.60;99.90;;;;;;5032546;28;20033;-82
2021/06/21 12:01:28;;;;;;;0.85;0.40;;;14.70;99.90;;;;;;5049172;28;20127;-84
2021/06/21 12:03:55;;;;;;;0.88;0.43;;;14.80;99.90;;;;;;5014003;28;20049;-83
2021/06/21 12:06:21;;;;;;;1.40;0.60;;;14.70;99.90;;;;;;5048787;28;20040;-82
2021/06/21 12:08:46;;;;;;;1.88;0.40;;;14.80;99.90;;;;;;5082102;28;20057;-83
2021/06/21 12:11:19;;;;;;;1.02;0.50;;;14.80;99.90;;;;;;5080691;28;20059;-83
2021/06/21 12:14:06;;;;;;;1.08;0.68;;;14.80;99.90;;;;;;5066624;28;20033;-83
2021/06/21 12:16:36;;;;;;;1.08;0.40;;;14.80;99.90;;;;;;5048360;28;20025;-82
2021/06/21 12:19:03;;;;;;;1.95;0.50;;;14.80;99.90;;;;;;5081851;28;20032;-81
2021/06/21 12:21:37;;;;;;;1.02;0.52;;;14.90;99.90;;;;;;5048384;28;20033;-81
2021/06/21 12:24:20;;;;;;;1.10;0.50;;;14.80;99.90;;;;;;5064747;28;20033;-82
2021/06/21 12:26:47;;;;;;;1.00;0.60;;;15.00;99.90;;;;;;5065986;28;20252;-82
2021/06/21 12:29:21;;;;;;;0.98;0.50;;;14.90;99.90;;;;;;5048266;28;20061;-82
2021/06/21 12:31:56;;;;;;;2.45;0.73;;;15.00;99.90;;;;;;5036380;28;20071;-81
2021/06/21 12:34:41;;;;;;;1.30;0.60;;;15.00;99.90;;;;;;5068015;28;20056;-82
2021/06/21 12:37:15;;;;;;;1.60;0.70;;;15.00;99.90;;;;;;5067523;28;20028;-81
2021/06/21 12:39:41;;;;;;;1.88;0.70;;;15.10;99.90;;;;;;5051602;28;20040;-82
2021/06/21 12:42:11;;;;;;;1.13;0.50;;;14.90;99.90;;;;;;5067241;28;20149;-80
2021/06/21 12:44:38;;;;;;;2.17;0.57;;;15.10;99.90;;;;;;5058151;28;20366;-83
2021/06/21 12:47:22;;;;;;;1.70;0.63;;;15.40;99.90;;;;;;5046939;28;20076;-81
2021/06/21 12:49:50;;;;;;;0.93;0.35;;;15.70;99.90;;;;;;5048030;28;20040;-81
2021/06/21 12:52:23;;;;;;;1.13;0.60;;;15.90;99.90;;;;;;5047644;28;20029;-81
2021/06/21 12:54:56;;;;;;;1.67;0.70;;;15.50;99.90;;;;;;5046821;28;20035;-81
2021/06/21 12:57:22;;;;;;;2.22;0.60;;;15.40;99.90;;;;;;5064343;28;20393;-82
2021/06/21 12:59:50;;;;;;;1.75;0.77;;;15.30;99.90;;;;;;5064534;28;20032;-82
2021/06/21 13:02:24;;;;;;;1.15;0.50;;;15.20;99.90;;;;;;5047496;28;20039;-81